| time (UTC) | temp F | wind direction | speed MPH | gust MPH | rain 1hr in | rain 24hr in | rain mn in | humidity % | barometer mb |
| 20260507083055 | 56 | 250 | 1.0 | 8.0 | 0.00 | 0.00 | 0.00 | 33 | 1012.8 |
| 20260507081554 | 55 | 248 | 0.0 | 4.0 | 0.00 | 0.00 | 0.00 | 34 | 1012.8 |
| 20260507080053 | 56 | 288 | 0.0 | 4.0 | 0.00 | 0.00 | 0.00 | 32 | 1012.8 |
| 20260507074551 | 54 | 150 | 1.0 | 4.0 | 0.00 | 0.00 | 0.00 | 41 | 1013.0 |
| 20260507073048 | 54 | 132 | 1.0 | 5.0 | 0.00 | 0.00 | 0.00 | 44 | 1013.2 |
| 20260507071540 | 56 | 170 | 1.0 | 5.0 | 0.00 | 0.00 | 0.00 | 33 | 1013.2 |
| 20260507070045 | 57 | 203 | 2.0 | 8.0 | 0.00 | 0.00 | 0.00 | 32 | 1013.3 |
| 20260507064538 | 56 | 251 | 1.0 | 12.0 | 0.00 | 0.00 | 0.00 | 32 | 1013.4 |
| 20260507063035 | 56 | 191 | 1.0 | 5.0 | 0.00 | 0.00 | 0.00 | 33 | 1013.5 |
| 20260507061529 | 56 | 197 | 2.0 | 6.0 | 0.00 | 0.00 | 0.00 | 33 | 1013.7 |
| 20260507060027 | 55 | 170 | 0.0 | 8.0 | 0.00 | 0.00 | 0.00 | 34 | 1013.6 |
| 20260507054523 | 53 | 228 | 1.0 | 5.0 | 0.00 | 0.00 | 0.00 | 41 | 1013.6 |
| 20260507053019 | 52 | 127 | 1.0 | 7.0 | 0.00 | 0.00 | 0.00 | 51 | 1013.6 |
| 20260507051517 | 52 | 111 | 2.0 | 9.0 | 0.00 | 0.00 | 0.00 | 53 | 1013.7 |
| 20260507050025 | 51 | 108 | 3.0 | 5.0 | 0.00 | 0.00 | 0.00 | 55 | 1014.0 |
| 20260507044513 | 51 | 111 | 1.0 | 3.0 | 0.00 | 0.00 | 0.00 | 56 | 1013.9 |
| 20260507043011 | 52 | 105 | 3.0 | 5.0 | 0.00 | 0.00 | 0.00 | 53 | 1013.7 |
| 20260507041510 | 52 | 105 | 2.0 | 5.0 | 0.00 | 0.00 | 0.00 | 52 | 1013.5 |
| 20260507040008 | 52 | 115 | 1.0 | 4.0 | 0.00 | 0.00 | 0.00 | 54 | 1013.5 |
| 20260507034505 | 53 | 107 | 2.0 | 5.0 | 0.00 | 0.00 | 0.00 | 53 | 1013.6 |
| 20260507033004 | 53 | 110 | 0.0 | 3.0 | 0.00 | 0.00 | 0.00 | 53 | 1013.4 |
| 20260507031502 | 53 | 148 | 0.0 | 2.0 | 0.00 | 0.00 | 0.00 | 51 | 1013.2 |
| 20260507030111 | 51 | 149 | 0.0 | 3.0 | 0.00 | 0.00 | 0.00 | 60 | 1013.1 |
| 20260507024610 | 50 | 205 | 0.0 | 3.0 | 0.00 | 0.00 | 0.00 | 63 | 1013.2 |
| 20260507023155 | 50 | 143 | 1.0 | 4.0 | 0.00 | 0.00 | 0.00 | 71 | 1013.3 |
| 20260507021557 | 51 | 98 | 2.0 | 7.0 | 0.00 | 0.00 | 0.00 | 68 | 1013.1 |
| 20260507020058 | 52 | 100 | 2.0 | 5.0 | 0.00 | 0.00 | 0.00 | 66 | 1013.0 |
| 20260507014555 | 52 | 105 | 5.0 | 11.0 | 0.00 | 0.00 | 0.00 | 65 | 1012.8 |
| 20260507013044 | 53 | 77 | 4.0 | 11.0 | 0.00 | 0.00 | 0.00 | 62 | 1013.2 |
| 20260507011547 | 54 | 108 | 4.0 | 10.0 | 0.00 | 0.00 | 0.00 | 61 | 1013.1 |
| 20260507010044 | 55 | 97 | 4.0 | 11.0 | 0.00 | 0.00 | 0.00 | 59 | 1013.0 |
| 20260507004538 | 55 | 100 | 4.0 | 11.0 | 0.00 | 0.00 | 0.00 | 60 | 1013.0 |
| 20260507003036 | 55 | 103 | 5.0 | 11.0 | 0.00 | 0.00 | 0.00 | 59 | 1013.2 |
| 20260507001536 | 55 | 103 | 3.0 | 10.0 | 0.00 | 0.00 | 0.00 | 59 | 1013.3 |
| 20260507000035 | 56 | 70 | 5.0 | 10.0 | 0.00 | 0.00 | 0.00 | 60 | 1013.0 |
| 20260506234528 | 55 | 103 | 5.0 | 11.0 | 0.00 | 0.00 | 0.00 | 58 | 1013.0 |
| 20260506233025 | 55 | 65 | 7.0 | 12.0 | 0.00 | 0.00 | 0.00 | 58 | 1013.2 |
| 20260506231522 | 55 | 94 | 4.0 | 10.0 | 0.00 | 0.00 | 0.00 | 56 | 1013.6 |
| 20260506230021 | 55 | 72 | 5.0 | 12.0 | 0.00 | 0.00 | 0.00 | 58 | 1013.4 |
| 20260506224518 | 55 | 72 | 5.0 | 13.0 | 0.00 | 0.00 | 0.00 | 58 | 1013.3 |
| 20260506223018 | 55 | 96 | 5.0 | 11.0 | 0.00 | 0.00 | 0.00 | 58 | 1013.8 |
| 20260506221511 | 56 | 105 | 4.0 | 9.0 | 0.00 | 0.00 | 0.00 | 57 | 1013.9 |
| 20260506220008 | 56 | 28 | 3.0 | 9.0 | 0.00 | 0.00 | 0.00 | 61 | 1013.9 |
| 20260506214504 | 55 | 115 | 3.0 | 8.0 | 0.00 | 0.00 | 0.00 | 60 | 1014.0 |
| 20260506213001 | 54 | 70 | 5.0 | 10.0 | 0.00 | 0.00 | 0.00 | 62 | 1014.3 |
| 20260506211600 | 54 | 72 | 3.0 | 10.0 | 0.00 | 0.00 | 0.00 | 63 | 1014.4 |
| 20260506210058 | 54 | 100 | 3.0 | 8.0 | 0.00 | 0.00 | 0.00 | 63 | 1014.5 |
| 20260506204559 | 54 | 103 | 3.0 | 7.0 | 0.00 | 0.00 | 0.00 | 62 | 1014.7 |
| 20260506203056 | 53 | 101 | 2.0 | 6.0 | 0.00 | 0.00 | 0.00 | 63 | 1015.0 |
| 20260506201556 | 52 | 91 | 2.0 | 6.0 | 0.00 | 0.00 | 0.00 | 64 | 1015.0 |
| 20260506200051 | 53 | 117 | 3.0 | 7.0 | 0.00 | 0.00 | 0.00 | 62 | 1015.0 |
| 20260506194549 | 53 | 94 | 3.0 | 6.0 | 0.00 | 0.00 | 0.00 | 62 | 1015.4 |
| 20260506193048 | 53 | 95 | 2.0 | 6.0 | 0.00 | 0.00 | 0.00 | 63 | 1015.4 |
| 20260506191544 | 54 | 29 | 3.0 | 8.0 | 0.00 | 0.00 | 0.00 | 63 | 1015.4 |
| 20260506190042 | 53 | 320 | 2.0 | 5.0 | 0.00 | 0.00 | 0.00 | 62 | 1015.5 |
| 20260506184545 | 53 | 53 | 0.0 | 3.0 | 0.00 | 0.00 | 0.00 | 65 | 1015.7 |
| 20260506183035 | 52 | 326 | 2.0 | 5.0 | 0.00 | 0.00 | 0.00 | 63 | 1015.8 |
| 20260506181533 | 52 | 342 | 3.0 | 6.0 | 0.00 | 0.00 | 0.00 | 63 | 1015.7 |
| 20260506180030 | 53 | 66 | 1.0 | 6.0 | 0.00 | 0.00 | 0.00 | 57 | 1015.7 |
| 20260506174527 | 52 | 274 | 4.0 | 7.0 | 0.00 | 0.04 | 0.00 | 55 | 1015.5 |
| 20260506173031 | 51 | 51 | 1.0 | 6.0 | 0.00 | 0.04 | 0.00 | 57 | 1015.5 |
| 20260506171625 | 52 | 297 | 4.0 | 7.0 | 0.00 | 0.04 | 0.00 | 59 | 1015.4 |
| 20260506170020 | 51 | 346 | 4.0 | 7.0 | 0.00 | 0.04 | 0.00 | 59 | 1015.4 |
| 20260506164515 | 50 | 297 | 5.0 | 8.0 | 0.00 | 0.09 | 0.00 | 56 | 1015.5 |
| 20260506163021 | 50 | 341 | 3.0 | 6.0 | 0.00 | 0.09 | 0.00 | 55 | 1015.5 |
| 20260506161507 | 49 | 326 | 2.0 | 5.0 | 0.00 | 0.09 | 0.00 | 60 | 1015.3 |
| 20260506160005 | 49 | 306 | 3.0 | 5.0 | 0.00 | 0.09 | 0.00 | 59 | 1015.3 |
| 20260506154604 | 49 | 42 | 0.0 | 3.0 | 0.00 | 0.11 | 0.00 | 57 | 1015.2 |
| 20260506153059 | 49 | 34 | 0.0 | 4.0 | 0.00 | 0.11 | 0.00 | 57 | 1015.1 |
| 20260506151553 | 48 | 26 | 1.0 | 3.0 | 0.00 | 0.11 | 0.00 | 55 | 1015.1 |
| 20260506150051 | 48 | 83 | 0.0 | 2.0 | 0.00 | 0.11 | 0.00 | 58 | 1015.2 |
| 20260506144547 | 47 | 84 | 0.0 | 0.0 | 0.00 | 0.14 | 0.00 | 59 | 1015.2 |
| 20260506143045 | 46 | 337 | 0.0 | 1.0 | 0.00 | 0.14 | 0.00 | 56 | 1015.1 |
| 20260506141537 | 43 | 339 | 0.0 | 1.0 | 0.00 | 0.14 | 0.00 | 58 | 1015.0 |
| 20260506140033 | 42 | 339 | 0.0 | 1.0 | 0.00 | 0.14 | 0.00 | 61 | 1014.9 |
| 20260506134529 | 42 | 310 | 0.0 | 1.0 | 0.00 | 0.18 | 0.00 | 62 | 1014.8 |
| 20260506133025 | 41 | 296 | 1.0 | 3.0 | 0.00 | 0.18 | 0.00 | 60 | 1014.6 |
| 20260506131619 | 40 | 309 | 0.0 | 0.0 | 0.00 | 0.18 | 0.00 | 69 | 1014.4 |
| 20260506130016 | 40 | 201 | 0.0 | 2.0 | 0.00 | 0.18 | 0.00 | 69 | 1014.3 |
| 20260506124514 | 39 | 115 | 1.0 | 2.0 | 0.00 | 0.22 | 0.00 | 72 | 1014.0 |
| 20260506123010 | 39 | 115 | 0.0 | 3.0 | 0.00 | 0.22 | 0.00 | 70 | 1013.9 |
| 20260506121510 | 39 | 125 | 1.0 | 2.0 | 0.00 | 0.22 | 0.00 | 74 | 1013.6 |
| 20260506120006 | 38 | 126 | 1.0 | 3.0 | 0.00 | 0.22 | 0.00 | 77 | 1013.6 |
| 20260506114503 | 38 | 121 | 0.0 | 2.0 | 0.00 | 0.22 | 0.00 | 77 | 1013.5 |
| 20260506113002 | 39 | 86 | 0.0 | 1.0 | 0.00 | 0.22 | 0.00 | 74 | 1013.6 |
| 20260506111558 | 39 | 171 | 0.0 | 2.0 | 0.00 | 0.22 | 0.00 | 78 | 1013.5 |
| 20260506110100 | 38 | 48 | 0.0 | 1.0 | 0.00 | 0.22 | 0.00 | 86 | 1013.4 |
| 20260506104555 | 38 | 34 | 0.0 | 1.0 | 0.00 | 0.22 | 0.00 | 93 | 1013.4 |
| 20260506103055 | 37 | 34 | 0.0 | 1.0 | 0.00 | 0.22 | 0.00 | 96 | 1013.4 |
| 20260506101552 | 37 | 300 | 0.0 | 2.0 | 0.00 | 0.22 | 0.00 | 96 | 1013.3 |
| 20260506100059 | 37 | 299 | 1.0 | 2.0 | 0.00 | 0.22 | 0.00 | 97 | 1013.3 |
| 20260506094536 | 36 | 241 | 0.0 | 2.0 | 0.00 | 0.22 | 0.00 | 97 | 1013.4 |
| 20260506093040 | 35 | 184 | 0.0 | 3.0 | 0.00 | 0.22 | 0.00 | 97 | 1013.4 |
| 20260506091533 | 35 | 110 | 1.0 | 5.0 | 0.00 | 0.22 | 0.00 | 97 | 1013.4 |
| 20260506090026 | 35 | 135 | 0.0 | 1.0 | 0.00 | 0.22 | 0.00 | 97 | 1013.5 |
| 20260506084523 | 33 | 150 | 0.0 | 0.0 | 0.00 | 0.22 | 0.00 | 97 | 1013.6 |